sensor_id;sensor_type;location;lat;lon;timestamp;P1;durP1;ratioP1;P2;durP2;ratioP2
56760;SDS011;42633;44.494;11.356;2022-07-04T00:01:12;4.88;;;3.00;;
56760;SDS011;42633;44.494;11.356;2022-07-04T00:04:16;5.72;;;3.50;;
56760;SDS011;42633;44.494;11.356;2022-07-04T00:07:20;5.05;;;3.03;;
56760;SDS011;42633;44.494;11.356;2022-07-04T00:10:25;6.07;;;3.30;;
56760;SDS011;42633;44.494;11.356;2022-07-04T00:13:29;5.38;;;3.50;;
56760;SDS011;42633;44.494;11.356;2022-07-04T00:16:33;5.95;;;3.42;;
56760;SDS011;42633;44.494;11.356;2022-07-04T00:19:38;8.85;;;3.45;;
56760;SDS011;42633;44.494;11.356;2022-07-04T00:22:42;5.82;;;3.28;;
56760;SDS011;42633;44.494;11.356;2022-07-04T00:25:46;11.75;;;3.58;;
56760;SDS011;42633;44.494;11.356;2022-07-04T00:28:50;20.20;;;4.10;;
56760;SDS011;42633;44.494;11.356;2022-07-04T00:31:55;6.35;;;3.03;;
56760;SDS011;42633;44.494;11.356;2022-07-04T00:34:59;6.95;;;3.55;;
56760;SDS011;42633;44.494;11.356;2022-07-04T00:38:03;9.40;;;3.17;;
56760;SDS011;42633;44.494;11.356;2022-07-04T00:41:07;5.75;;;3.40;;
56760;SDS011;42633;44.494;11.356;2022-07-04T00:44:11;4.78;;;3.42;;
56760;SDS011;42633;44.494;11.356;2022-07-04T00:47:16;8.30;;;3.30;;
56760;SDS011;42633;44.494;11.356;2022-07-04T00:50:20;5.57;;;3.15;;
56760;SDS011;42633;44.494;11.356;2022-07-04T00:53:24;5.28;;;2.97;;
56760;SDS011;42633;44.494;11.356;2022-07-04T00:56:29;6.68;;;3.20;;
56760;SDS011;42633;44.494;11.356;2022-07-04T00:59:33;4.20;;;2.95;;
56760;SDS011;42633;44.494;11.356;2022-07-04T01:02:37;5.15;;;2.85;;
56760;SDS011;42633;44.494;11.356;2022-07-04T01:05:41;5.57;;;3.33;;
56760;SDS011;42633;44.494;11.356;2022-07-04T01:08:46;9.48;;;3.15;;
56760;SDS011;42633;44.494;11.356;2022-07-04T01:11:50;5.93;;;3.00;;
56760;SDS011;42633;44.494;11.356;2022-07-04T01:14:54;5.13;;;3.00;;
56760;SDS011;42633;44.494;11.356;2022-07-04T01:17:58;5.55;;;3.08;;
56760;SDS011;42633;44.494;11.356;2022-07-04T01:21:02;5.97;;;3.40;;
56760;SDS011;42633;44.494;11.356;2022-07-04T01:24:10;5.93;;;3.65;;
56760;SDS011;42633;44.494;11.356;2022-07-04T01:27:16;4.85;;;2.70;;
56760;SDS011;42633;44.494;11.356;2022-07-04T01:30:21;4.78;;;3.28;;
56760;SDS011;42633;44.494;11.356;2022-07-04T01:33:25;6.18;;;2.88;;
56760;SDS011;42633;44.494;11.356;2022-07-04T01:36:30;4.28;;;3.03;;
56760;SDS011;42633;44.494;11.356;2022-07-04T01:39:34;8.55;;;3.50;;
56760;SDS011;42633;44.494;11.356;2022-07-04T01:42:38;5.07;;;2.80;;
56760;SDS011;42633;44.494;11.356;2022-07-04T01:45:42;8.02;;;3.22;;
56760;SDS011;42633;44.494;11.356;2022-07-04T01:48:47;5.00;;;3.20;;
56760;SDS011;42633;44.494;11.356;2022-07-04T01:51:51;6.03;;;3.30;;
56760;SDS011;42633;44.494;11.356;2022-07-04T01:54:55;7.05;;;3.20;;
56760;SDS011;42633;44.494;11.356;2022-07-04T01:57:59;8.45;;;3.40;;
56760;SDS011;42633;44.494;11.356;2022-07-04T02:01:03;3.65;;;2.78;;
56760;SDS011;42633;44.494;11.356;2022-07-04T02:04:26;5.57;;;3.25;;
56760;SDS011;42633;44.494;11.356;2022-07-04T02:07:30;6.80;;;3.50;;
56760;SDS011;42633;44.494;11.356;2022-07-04T02:10:34;4.65;;;3.20;;
56760;SDS011;42633;44.494;11.356;2022-07-04T02:13:38;11.23;;;4.20;;
56760;SDS011;42633;44.494;11.356;2022-07-04T02:16:42;7.00;;;3.63;;
56760;SDS011;42633;44.494;11.356;2022-07-04T02:19:46;4.72;;;3.20;;
56760;SDS011;42633;44.494;11.356;2022-07-04T02:22:51;7.82;;;3.95;;
56760;SDS011;42633;44.494;11.356;2022-07-04T02:25:55;11.30;;;5.15;;
56760;SDS011;42633;44.494;11.356;2022-07-04T02:28:59;13.90;;;5.63;;
56760;SDS011;42633;44.494;11.356;2022-07-04T02:32:04;6.40;;;4.05;;
56760;SDS011;42633;44.494;11.356;2022-07-04T02:35:09;8.90;;;4.57;;
56760;SDS011;42633;44.494;11.356;2022-07-04T02:38:14;8.95;;;4.78;;
56760;SDS011;42633;44.494;11.356;2022-07-04T02:41:18;7.85;;;4.43;;
56760;SDS011;42633;44.494;11.356;2022-07-04T02:44:22;7.90;;;4.07;;
56760;SDS011;42633;44.494;11.356;2022-07-04T02:47:26;8.25;;;4.30;;
56760;SDS011;42633;44.494;11.356;2022-07-04T02:50:30;8.88;;;4.18;;
56760;SDS011;42633;44.494;11.356;2022-07-04T02:53:34;9.15;;;4.70;;
56760;SDS011;42633;44.494;11.356;2022-07-04T02:56:38;9.68;;;4.97;;
56760;SDS011;42633;44.494;11.356;2022-07-04T02:59:42;6.70;;;4.20;;
56760;SDS011;42633;44.494;11.356;2022-07-04T03:02:46;12.43;;;4.35;;
56760;SDS011;42633;44.494;11.356;2022-07-04T03:05:50;8.07;;;4.30;;
56760;SDS011;42633;44.494;11.356;2022-07-04T03:08:54;8.45;;;4.10;;
56760;SDS011;42633;44.494;11.356;2022-07-04T03:11:58;10.73;;;4.57;;
56760;SDS011;42633;44.494;11.356;2022-07-04T03:15:03;8.95;;;4.60;;
56760;SDS011;42633;44.494;11.356;2022-07-04T03:18:07;7.53;;;4.55;;
56760;SDS011;42633;44.494;11.356;2022-07-04T03:21:11;8.93;;;4.38;;
56760;SDS011;42633;44.494;11.356;2022-07-04T03:24:15;8.27;;;4.30;;
56760;SDS011;42633;44.494;11.356;2022-07-04T03:27:25;12.15;;;4.85;;
56760;SDS011;42633;44.494;11.356;2022-07-04T03:30:30;13.95;;;5.57;;
56760;SDS011;42633;44.494;11.356;2022-07-04T03:33:34;11.80;;;4.93;;
56760;SDS011;42633;44.494;11.356;2022-07-04T03:36:39;12.20;;;4.43;;
56760;SDS011;42633;44.494;11.356;2022-07-04T03:39:50;12.60;;;4.13;;
56760;SDS011;42633;44.494;11.356;2022-07-04T03:43:09;10.73;;;4.07;;
56760;SDS011;42633;44.494;11.356;2022-07-04T03:46:14;5.85;;;4.07;;
56760;SDS011;42633;44.494;11.356;2022-07-04T03:49:18;6.90;;;4.00;;
56760;SDS011;42633;44.494;11.356;2022-07-04T03:52:22;8.32;;;3.60;;
56760;SDS011;42633;44.494;11.356;2022-07-04T03:55:28;4.57;;;3.72;;
56760;SDS011;42633;44.494;11.356;2022-07-04T03:58:33;6.40;;;3.92;;
56760;SDS011;42633;44.494;11.356;2022-07-04T04:01:39;10.50;;;4.28;;
56760;SDS011;42633;44.494;11.356;2022-07-04T04:04:48;7.18;;;3.50;;
56760;SDS011;42633;44.494;11.356;2022-07-04T04:08:14;8.73;;;4.50;;
56760;SDS011;42633;44.494;11.356;2022-07-04T04:14:25;5.97;;;3.75;;
56760;SDS011;42633;44.494;11.356;2022-07-04T04:17:31;7.90;;;4.03;;
56760;SDS011;42633;44.494;11.356;2022-07-04T04:20:38;8.73;;;4.57;;
56760;SDS011;42633;44.494;11.356;2022-07-04T04:23:45;7.50;;;4.45;;
56760;SDS011;42633;44.494;11.356;2022-07-04T04:26:49;6.13;;;4.05;;
56760;SDS011;42633;44.494;11.356;2022-07-04T04:29:53;8.40;;;3.65;;
56760;SDS011;42633;44.494;11.356;2022-07-04T04:32:58;8.10;;;4.20;;
56760;SDS011;42633;44.494;11.356;2022-07-04T04:36:03;7.68;;;3.90;;
56760;SDS011;42633;44.494;11.356;2022-07-04T04:39:07;6.82;;;3.67;;
56760;SDS011;42633;44.494;11.356;2022-07-04T04:42:12;7.00;;;4.10;;
56760;SDS011;42633;44.494;11.356;2022-07-04T04:45:16;8.80;;;4.40;;
56760;SDS011;42633;44.494;11.356;2022-07-04T04:48:20;6.05;;;4.25;;
56760;SDS011;42633;44.494;11.356;2022-07-04T04:51:24;8.88;;;3.90;;
56760;SDS011;42633;44.494;11.356;2022-07-04T04:54:28;6.20;;;3.67;;
56760;SDS011;42633;44.494;11.356;2022-07-04T04:57:32;9.52;;;3.90;;
56760;SDS011;42633;44.494;11.356;2022-07-04T05:00:37;9.18;;;4.18;;
56760;SDS011;42633;44.494;11.356;2022-07-04T05:03:42;9.77;;;3.90;;
56760;SDS011;42633;44.494;11.356;2022-07-04T05:06:46;9.88;;;4.68;;
56760;SDS011;42633;44.494;11.356;2022-07-04T05:09:50;8.63;;;4.10;;
56760;SDS011;42633;44.494;11.356;2022-07-04T05:12:54;7.68;;;3.72;;
56760;SDS011;42633;44.494;11.356;2022-07-04T05:15:58;8.45;;;3.92;;
56760;SDS011;42633;44.494;11.356;2022-07-04T05:19:02;6.35;;;3.67;;
56760;SDS011;42633;44.494;11.356;2022-07-04T05:22:06;6.70;;;3.53;;
56760;SDS011;42633;44.494;11.356;2022-07-04T05:25:10;6.22;;;3.70;;
56760;SDS011;42633;44.494;11.356;2022-07-04T05:28:14;6.45;;;3.85;;
56760;SDS011;42633;44.494;11.356;2022-07-04T05:31:18;7.15;;;4.05;;
56760;SDS011;42633;44.494;11.356;2022-07-04T05:34:22;8.60;;;3.75;;
56760;SDS011;42633;44.494;11.356;2022-07-04T05:37:26;4.95;;;3.08;;
56760;SDS011;42633;44.494;11.356;2022-07-04T05:40:30;10.57;;;4.53;;
56760;SDS011;42633;44.494;11.356;2022-07-04T05:43:34;5.90;;;4.03;;
56760;SDS011;42633;44.494;11.356;2022-07-04T05:46:38;9.48;;;3.83;;
56760;SDS011;42633;44.494;11.356;2022-07-04T05:49:42;4.88;;;3.05;;
56760;SDS011;42633;44.494;11.356;2022-07-04T05:52:46;6.57;;;3.92;;
56760;SDS011;42633;44.494;11.356;2022-07-04T05:55:50;8.77;;;3.85;;
56760;SDS011;42633;44.494;11.356;2022-07-04T05:58:54;7.90;;;3.40;;
56760;SDS011;42633;44.494;11.356;2022-07-04T06:01:59;8.13;;;4.00;;
56760;SDS011;42633;44.494;11.356;2022-07-04T06:05:03;8.00;;;3.88;;
56760;SDS011;42633;44.494;11.356;2022-07-04T06:08:08;8.45;;;4.13;;
56760;SDS011;42633;44.494;11.356;2022-07-04T06:11:12;7.00;;;4.07;;
56760;SDS011;42633;44.494;11.356;2022-07-04T06:14:17;10.40;;;4.60;;
56760;SDS011;42633;44.494;11.356;2022-07-04T06:17:21;6.18;;;3.70;;
56760;SDS011;42633;44.494;11.356;2022-07-04T06:20:25;5.30;;;4.15;;
56760;SDS011;42633;44.494;11.356;2022-07-04T06:23:29;10.27;;;4.18;;
56760;SDS011;42633;44.494;11.356;2022-07-04T06:26:33;7.30;;;3.45;;
56760;SDS011;42633;44.494;11.356;2022-07-04T06:29:37;10.75;;;4.10;;
56760;SDS011;42633;44.494;11.356;2022-07-04T06:32:42;7.65;;;4.43;;
56760;SDS011;42633;44.494;11.356;2022-07-04T06:35:50;9.95;;;4.93;;
56760;SDS011;42633;44.494;11.356;2022-07-04T06:38:58;10.55;;;4.82;;
56760;SDS011;42633;44.494;11.356;2022-07-04T06:42:03;7.60;;;5.07;;
56760;SDS011;42633;44.494;11.356;2022-07-04T06:45:07;7.13;;;4.68;;
56760;SDS011;42633;44.494;11.356;2022-07-04T06:48:12;10.15;;;5.88;;
56760;SDS011;42633;44.494;11.356;2022-07-04T06:51:16;11.10;;;6.40;;
56760;SDS011;42633;44.494;11.356;2022-07-04T06:54:20;10.73;;;5.35;;
56760;SDS011;42633;44.494;11.356;2022-07-04T06:57:24;14.65;;;5.55;;
56760;SDS011;42633;44.494;11.356;2022-07-04T07:00:28;12.48;;;5.30;;
56760;SDS011;42633;44.494;11.356;2022-07-04T07:03:36;10.82;;;5.38;;
56760;SDS011;42633;44.494;11.356;2022-07-04T07:06:39;10.73;;;5.43;;
56760;SDS011;42633;44.494;11.356;2022-07-04T07:09:44;12.15;;;5.38;;
56760;SDS011;42633;44.494;11.356;2022-07-04T07:12:48;8.23;;;5.13;;
56760;SDS011;42633;44.494;11.356;2022-07-04T07:15:52;11.32;;;4.90;;
56760;SDS011;42633;44.494;11.356;2022-07-04T07:18:56;8.82;;;5.10;;
56760;SDS011;42633;44.494;11.356;2022-07-04T07:22:00;10.68;;;5.55;;
56760;SDS011;42633;44.494;11.356;2022-07-04T07:25:04;12.65;;;5.72;;
56760;SDS011;42633;44.494;11.356;2022-07-04T07:28:08;10.95;;;5.00;;
56760;SDS011;42633;44.494;11.356;2022-07-04T07:31:12;11.05;;;6.18;;
56760;SDS011;42633;44.494;11.356;2022-07-04T07:34:16;9.68;;;4.88;;
56760;SDS011;42633;44.494;11.356;2022-07-04T07:37:21;9.18;;;5.72;;
56760;SDS011;42633;44.494;11.356;2022-07-04T07:40:25;10.25;;;5.70;;
56760;SDS011;42633;44.494;11.356;2022-07-04T07:43:30;11.68;;;5.28;;
56760;SDS011;42633;44.494;11.356;2022-07-04T07:46:35;8.60;;;5.05;;
56760;SDS011;42633;44.494;11.356;2022-07-04T07:49:39;12.07;;;6.85;;
56760;SDS011;42633;44.494;11.356;2022-07-04T07:52:44;12.27;;;5.43;;
56760;SDS011;42633;44.494;11.356;2022-07-04T07:55:48;9.95;;;5.40;;
56760;SDS011;42633;44.494;11.356;2022-07-04T07:58:52;11.18;;;5.40;;
56760;SDS011;42633;44.494;11.356;2022-07-04T08:01:57;11.32;;;5.10;;
56760;SDS011;42633;44.494;11.356;2022-07-04T08:05:00;14.38;;;6.32;;
56760;SDS011;42633;44.494;11.356;2022-07-04T08:08:04;15.55;;;5.68;;
56760;SDS011;42633;44.494;11.356;2022-07-04T08:11:11;12.07;;;6.90;;
56760;SDS011;42633;44.494;11.356;2022-07-04T08:14:15;7.70;;;4.38;;
56760;SDS011;42633;44.494;11.356;2022-07-04T08:17:19;6.43;;;4.43;;
56760;SDS011;42633;44.494;11.356;2022-07-04T08:20:24;8.50;;;5.20;;
56760;SDS011;42633;44.494;11.356;2022-07-04T08:23:29;7.93;;;5.47;;
56760;SDS011;42633;44.494;11.356;2022-07-04T08:26:35;9.48;;;5.93;;
56760;SDS011;42633;44.494;11.356;2022-07-04T08:29:39;12.55;;;4.82;;
56760;SDS011;42633;44.494;11.356;2022-07-04T08:32:44;10.77;;;5.00;;
56760;SDS011;42633;44.494;11.356;2022-07-04T08:35:48;8.20;;;5.28;;
56760;SDS011;42633;44.494;11.356;2022-07-04T08:38:53;13.73;;;5.32;;
56760;SDS011;42633;44.494;11.356;2022-07-04T08:41:59;10.77;;;5.15;;
56760;SDS011;42633;44.494;11.356;2022-07-04T08:45:07;15.32;;;5.65;;
56760;SDS011;42633;44.494;11.356;2022-07-04T08:48:12;11.73;;;4.95;;
56760;SDS011;42633;44.494;11.356;2022-07-04T08:51:16;9.32;;;4.82;;
56760;SDS011;42633;44.494;11.356;2022-07-04T08:54:27;15.80;;;4.85;;
56760;SDS011;42633;44.494;11.356;2022-07-04T08:57:53;10.30;;;4.72;;
56760;SDS011;42633;44.494;11.356;2022-07-04T09:01:16;11.90;;;4.88;;
56760;SDS011;42633;44.494;11.356;2022-07-04T09:04:21;10.75;;;5.32;;
56760;SDS011;42633;44.494;11.356;2022-07-04T09:07:26;9.30;;;4.43;;
56760;SDS011;42633;44.494;11.356;2022-07-04T09:10:31;11.55;;;4.43;;
56760;SDS011;42633;44.494;11.356;2022-07-04T09:13:36;11.38;;;4.90;;
56760;SDS011;42633;44.494;11.356;2022-07-04T09:16:40;10.15;;;4.13;;
56760;SDS011;42633;44.494;11.356;2022-07-04T09:19:45;8.27;;;4.43;;
56760;SDS011;42633;44.494;11.356;2022-07-04T09:23:15;8.80;;;4.40;;
56760;SDS011;42633;44.494;11.356;2022-07-04T09:26:44;10.25;;;4.60;;
56760;SDS011;42633;44.494;11.356;2022-07-04T09:29:53;11.00;;;4.43;;
56760;SDS011;42633;44.494;11.356;2022-07-04T09:32:57;10.90;;;4.18;;
56760;SDS011;42633;44.494;11.356;2022-07-04T09:36:16;11.20;;;4.55;;
56760;SDS011;42633;44.494;11.356;2022-07-04T09:39:22;15.05;;;4.22;;
56760;SDS011;42633;44.494;11.356;2022-07-04T09:42:33;9.40;;;4.35;;
56760;SDS011;42633;44.494;11.356;2022-07-04T09:45:52;10.52;;;4.47;;
56760;SDS011;42633;44.494;11.356;2022-07-04T09:49:00;8.63;;;4.32;;
56760;SDS011;42633;44.494;11.356;2022-07-04T09:52:05;11.10;;;4.25;;
56760;SDS011;42633;44.494;11.356;2022-07-04T09:55:08;10.93;;;4.30;;
56760;SDS011;42633;44.494;11.356;2022-07-04T09:58:14;15.23;;;5.13;;
56760;SDS011;42633;44.494;11.356;2022-07-04T10:01:19;12.32;;;5.90;;
56760;SDS011;42633;44.494;11.356;2022-07-04T10:04:25;6.18;;;3.83;;
56760;SDS011;42633;44.494;11.356;2022-07-04T10:07:47;9.75;;;3.85;;
56760;SDS011;42633;44.494;11.356;2022-07-04T10:10:51;9.13;;;3.85;;
56760;SDS011;42633;44.494;11.356;2022-07-04T10:14:03;13.18;;;4.28;;
56760;SDS011;42633;44.494;11.356;2022-07-04T10:17:11;9.18;;;3.97;;
56760;SDS011;42633;44.494;11.356;2022-07-04T10:20:16;14.52;;;4.07;;
56760;SDS011;42633;44.494;11.356;2022-07-04T10:23:21;9.15;;;3.83;;
56760;SDS011;42633;44.494;11.356;2022-07-04T10:26:39;7.07;;;4.00;;
56760;SDS011;42633;44.494;11.356;2022-07-04T10:29:43;9.65;;;4.15;;
56760;SDS011;42633;44.494;11.356;2022-07-04T10:32:48;10.32;;;3.70;;
56760;SDS011;42633;44.494;11.356;2022-07-04T10:36:00;8.05;;;3.78;;
56760;SDS011;42633;44.494;11.356;2022-07-04T10:39:06;8.85;;;3.60;;
56760;SDS011;42633;44.494;11.356;2022-07-04T10:42:10;10.65;;;4.30;;
56760;SDS011;42633;44.494;11.356;2022-07-04T10:45:31;9.48;;;4.13;;
56760;SDS011;42633;44.494;11.356;2022-07-04T10:48:36;10.55;;;3.60;;
56760;SDS011;42633;44.494;11.356;2022-07-04T10:51:52;7.97;;;3.90;;
56760;SDS011;42633;44.494;11.356;2022-07-04T10:54:58;9.65;;;3.60;;
56760;SDS011;42633;44.494;11.356;2022-07-04T10:58:27;9.95;;;4.47;;
56760;SDS011;42633;44.494;11.356;2022-07-04T11:01:46;12.43;;;4.68;;
56760;SDS011;42633;44.494;11.356;2022-07-04T11:04:57;8.25;;;4.40;;
56760;SDS011;42633;44.494;11.356;2022-07-04T11:08:04;7.90;;;3.67;;
56760;SDS011;42633;44.494;11.356;2022-07-04T11:11:35;8.07;;;4.97;;
56760;SDS011;42633;44.494;11.356;2022-07-04T11:14:53;7.05;;;3.70;;
56760;SDS011;42633;44.494;11.356;2022-07-04T11:21:15;8.52;;;3.83;;
56760;SDS011;42633;44.494;11.356;2022-07-04T11:24:20;14.23;;;4.65;;
56760;SDS011;42633;44.494;11.356;2022-07-04T11:27:25;11.60;;;4.28;;
56760;SDS011;42633;44.494;11.356;2022-07-04T11:30:29;7.13;;;3.42;;
56760;SDS011;42633;44.494;11.356;2022-07-04T11:33:33;10.43;;;3.70;;
56760;SDS011;42633;44.494;11.356;2022-07-04T11:36:41;8.13;;;3.45;;
56760;SDS011;42633;44.494;11.356;2022-07-04T11:39:51;7.03;;;3.30;;
56760;SDS011;42633;44.494;11.356;2022-07-04T11:43:20;10.93;;;3.58;;
56760;SDS011;42633;44.494;11.356;2022-07-04T11:46:43;15.00;;;3.50;;
56760;SDS011;42633;44.494;11.356;2022-07-04T11:52:55;7.15;;;3.95;;
56760;SDS011;42633;44.494;11.356;2022-07-04T11:55:59;7.75;;;3.28;;
56760;SDS011;42633;44.494;11.356;2022-07-04T11:59:11;10.50;;;3.50;;
56760;SDS011;42633;44.494;11.356;2022-07-04T12:02:17;9.65;;;3.65;;
56760;SDS011;42633;44.494;11.356;2022-07-04T12:05:21;8.90;;;3.83;;
56760;SDS011;42633;44.494;11.356;2022-07-04T12:08:26;10.00;;;4.30;;
56760;SDS011;42633;44.494;11.356;2022-07-04T12:15:04;9.52;;;3.65;;
56760;SDS011;42633;44.494;11.356;2022-07-04T12:18:20;7.07;;;3.60;;
56760;SDS011;42633;44.494;11.356;2022-07-04T12:21:25;7.90;;;4.00;;
56760;SDS011;42633;44.494;11.356;2022-07-04T12:24:40;9.18;;;3.63;;
56760;SDS011;42633;44.494;11.356;2022-07-04T12:27:50;9.63;;;4.13;;
56760;SDS011;42633;44.494;11.356;2022-07-04T12:30:59;7.18;;;3.10;;
56760;SDS011;42633;44.494;11.356;2022-07-04T12:34:04;9.95;;;3.72;;
56760;SDS011;42633;44.494;11.356;2022-07-04T12:37:18;8.60;;;3.40;;
56760;SDS011;42633;44.494;11.356;2022-07-04T12:40:22;12.18;;;3.75;;
56760;SDS011;42633;44.494;11.356;2022-07-04T12:43:43;8.65;;;4.28;;
56760;SDS011;42633;44.494;11.356;2022-07-04T12:46:49;10.43;;;4.13;;
56760;SDS011;42633;44.494;11.356;2022-07-04T12:49:59;7.43;;;3.53;;
56760;SDS011;42633;44.494;11.356;2022-07-04T12:53:04;13.15;;;3.45;;
56760;SDS011;42633;44.494;11.356;2022-07-04T12:56:08;6.10;;;3.17;;
56760;SDS011;42633;44.494;11.356;2022-07-04T12:59:16;7.33;;;3.57;;
56760;SDS011;42633;44.494;11.356;2022-07-04T13:02:24;12.40;;;3.72;;
56760;SDS011;42633;44.494;11.356;2022-07-04T13:05:28;14.15;;;4.07;;
56760;SDS011;42633;44.494;11.356;2022-07-04T13:08:32;9.10;;;3.85;;
56760;SDS011;42633;44.494;11.356;2022-07-04T13:11:37;9.82;;;3.40;;
56760;SDS011;42633;44.494;11.356;2022-07-04T13:15:03;11.50;;;3.55;;
56760;SDS011;42633;44.494;11.356;2022-07-04T13:18:09;10.85;;;5.75;;
56760;SDS011;42633;44.494;11.356;2022-07-04T13:21:13;10.55;;;4.18;;
56760;SDS011;42633;44.494;11.356;2022-07-04T13:24:17;11.85;;;3.72;;
56760;SDS011;42633;44.494;11.356;2022-07-04T13:27:09;8.57;;;3.85;;
56760;SDS011;42633;44.494;11.356;2022-07-04T13:30:13;10.23;;;3.30;;
56760;SDS011;42633;44.494;11.356;2022-07-04T13:33:17;7.38;;;3.92;;
56760;SDS011;42633;44.494;11.356;2022-07-04T13:36:21;14.70;;;4.68;;
56760;SDS011;42633;44.494;11.356;2022-07-04T13:39:25;11.45;;;3.65;;
56760;SDS011;42633;44.494;11.356;2022-07-04T13:42:29;10.55;;;4.15;;
56760;SDS011;42633;44.494;11.356;2022-07-04T13:45:57;9.02;;;3.70;;
56760;SDS011;42633;44.494;11.356;2022-07-04T13:49:05;8.98;;;3.70;;
56760;SDS011;42633;44.494;11.356;2022-07-04T13:52:09;7.70;;;3.85;;
56760;SDS011;42633;44.494;11.356;2022-07-04T13:55:12;6.72;;;3.90;;
56760;SDS011;42633;44.494;11.356;2022-07-04T13:58:17;13.65;;;4.10;;
56760;SDS011;42633;44.494;11.356;2022-07-04T14:01:26;8.88;;;3.70;;
56760;SDS011;42633;44.494;11.356;2022-07-04T14:04:35;9.65;;;3.53;;
56760;SDS011;42633;44.494;11.356;2022-07-04T14:07:41;7.38;;;3.22;;
56760;SDS011;42633;44.494;11.356;2022-07-04T14:10:52;8.50;;;3.30;;
56760;SDS011;42633;44.494;11.356;2022-07-04T14:13:57;11.02;;;3.50;;
56760;SDS011;42633;44.494;11.356;2022-07-04T14:17:02;12.35;;;4.20;;
56760;SDS011;42633;44.494;11.356;2022-07-04T14:20:08;9.32;;;4.80;;
56760;SDS011;42633;44.494;11.356;2022-07-04T14:23:22;7.53;;;3.53;;
56760;SDS011;42633;44.494;11.356;2022-07-04T14:26:47;11.00;;;3.70;;
56760;SDS011;42633;44.494;11.356;2022-07-04T14:29:51;5.00;;;3.03;;
56760;SDS011;42633;44.494;11.356;2022-07-04T14:32:55;9.73;;;3.78;;
56760;SDS011;42633;44.494;11.356;2022-07-04T14:36:01;15.23;;;4.10;;
56760;SDS011;42633;44.494;11.356;2022-07-04T14:39:10;13.07;;;3.63;;
56760;SDS011;42633;44.494;11.356;2022-07-04T14:42:15;6.63;;;3.60;;
56760;SDS011;42633;44.494;11.356;2022-07-04T14:45:20;9.00;;;4.05;;
56760;SDS011;42633;44.494;11.356;2022-07-04T14:48:24;11.80;;;4.28;;
56760;SDS011;42633;44.494;11.356;2022-07-04T14:51:28;10.15;;;4.55;;
56760;SDS011;42633;44.494;11.356;2022-07-04T14:54:32;8.73;;;3.83;;
56760;SDS011;42633;44.494;11.356;2022-07-04T14:57:37;6.97;;;3.58;;
56760;SDS011;42633;44.494;11.356;2022-07-04T15:00:42;10.63;;;5.60;;
56760;SDS011;42633;44.494;11.356;2022-07-04T15:03:46;12.90;;;3.92;;
56760;SDS011;42633;44.494;11.356;2022-07-04T15:06:50;7.65;;;3.75;;
56760;SDS011;42633;44.494;11.356;2022-07-04T15:09:54;8.65;;;3.70;;
56760;SDS011;42633;44.494;11.356;2022-07-04T15:12:59;8.07;;;3.60;;
56760;SDS011;42633;44.494;11.356;2022-07-04T15:16:03;11.30;;;3.92;;
56760;SDS011;42633;44.494;11.356;2022-07-04T15:19:08;6.53;;;3.60;;
56760;SDS011;42633;44.494;11.356;2022-07-04T15:22:12;12.57;;;4.13;;
56760;SDS011;42633;44.494;11.356;2022-07-04T15:25:35;4.80;;;3.72;;
56760;SDS011;42633;44.494;11.356;2022-07-04T15:28:39;11.43;;;4.85;;
56760;SDS011;42633;44.494;11.356;2022-07-04T15:31:43;6.90;;;4.25;;
56760;SDS011;42633;44.494;11.356;2022-07-04T15:34:48;9.15;;;4.05;;
56760;SDS011;42633;44.494;11.356;2022-07-04T15:37:52;11.18;;;3.80;;
56760;SDS011;42633;44.494;11.356;2022-07-04T15:40:56;9.70;;;3.35;;
56760;SDS011;42633;44.494;11.356;2022-07-04T15:44:03;11.45;;;3.88;;
56760;SDS011;42633;44.494;11.356;2022-07-04T15:47:07;12.88;;;4.20;;
56760;SDS011;42633;44.494;11.356;2022-07-04T15:53:45;11.88;;;5.30;;
56760;SDS011;42633;44.494;11.356;2022-07-04T15:56:50;7.40;;;4.22;;
56760;SDS011;42633;44.494;11.356;2022-07-04T15:59:55;12.02;;;5.55;;
56760;SDS011;42633;44.494;11.356;2022-07-04T16:06:07;7.55;;;3.50;;
56760;SDS011;42633;44.494;11.356;2022-07-04T16:09:26;7.07;;;3.42;;
56760;SDS011;42633;44.494;11.356;2022-07-04T16:12:30;9.07;;;4.00;;
56760;SDS011;42633;44.494;11.356;2022-07-04T16:15:35;11.27;;;4.93;;
56760;SDS011;42633;44.494;11.356;2022-07-04T16:18:41;6.97;;;4.38;;
56760;SDS011;42633;44.494;11.356;2022-07-04T16:21:48;12.60;;;5.57;;
56760;SDS011;42633;44.494;11.356;2022-07-04T16:24:53;8.63;;;4.07;;
56760;SDS011;42633;44.494;11.356;2022-07-04T16:27:57;7.70;;;4.07;;
56760;SDS011;42633;44.494;11.356;2022-07-04T16:34:33;9.10;;;3.85;;
56760;SDS011;42633;44.494;11.356;2022-07-04T16:38:04;6.57;;;3.72;;
56760;SDS011;42633;44.494;11.356;2022-07-04T16:41:09;6.97;;;3.63;;
56760;SDS011;42633;44.494;11.356;2022-07-04T16:44:15;15.57;;;5.35;;
56760;SDS011;42633;44.494;11.356;2022-07-04T16:47:20;9.45;;;4.45;;
56760;SDS011;42633;44.494;11.356;2022-07-04T16:50:26;11.30;;;5.05;;
56760;SDS011;42633;44.494;11.356;2022-07-04T16:53:32;8.82;;;4.97;;
56760;SDS011;42633;44.494;11.356;2022-07-04T16:56:39;8.88;;;4.15;;
56760;SDS011;42633;44.494;11.356;2022-07-04T16:59:45;15.07;;;4.50;;
56760;SDS011;42633;44.494;11.356;2022-07-04T17:02:49;15.82;;;6.20;;
56760;SDS011;42633;44.494;11.356;2022-07-04T17:05:53;7.13;;;4.07;;
56760;SDS011;42633;44.494;11.356;2022-07-04T17:08:58;7.47;;;4.38;;
56760;SDS011;42633;44.494;11.356;2022-07-04T17:12:02;7.70;;;4.20;;
56760;SDS011;42633;44.494;11.356;2022-07-04T17:15:07;9.98;;;3.72;;
56760;SDS011;42633;44.494;11.356;2022-07-04T17:18:12;12.68;;;4.50;;
56760;SDS011;42633;44.494;11.356;2022-07-04T17:24:23;7.85;;;4.45;;
56760;SDS011;42633;44.494;11.356;2022-07-04T17:27:29;10.65;;;4.00;;
56760;SDS011;42633;44.494;11.356;2022-07-04T17:30:35;8.48;;;4.53;;
56760;SDS011;42633;44.494;11.356;2022-07-04T17:33:40;14.07;;;5.10;;
56760;SDS011;42633;44.494;11.356;2022-07-04T17:36:52;11.88;;;6.40;;
56760;SDS011;42633;44.494;11.356;2022-07-04T17:39:56;12.48;;;5.93;;
56760;SDS011;42633;44.494;11.356;2022-07-04T17:43:00;8.52;;;3.90;;
56760;SDS011;42633;44.494;11.356;2022-07-04T17:46:04;7.38;;;3.40;;
56760;SDS011;42633;44.494;11.356;2022-07-04T17:49:07;8.40;;;4.50;;
56760;SDS011;42633;44.494;11.356;2022-07-04T17:52:12;9.18;;;5.88;;
56760;SDS011;42633;44.494;11.356;2022-07-04T17:55:16;12.52;;;4.97;;
56760;SDS011;42633;44.494;11.356;2022-07-04T17:58:20;22.40;;;6.28;;
56760;SDS011;42633;44.494;11.356;2022-07-04T18:01:25;71.78;;;12.30;;
56760;SDS011;42633;44.494;11.356;2022-07-04T18:04:29;53.08;;;9.05;;
56760;SDS011;42633;44.494;11.356;2022-07-04T18:07:34;34.45;;;12.27;;
56760;SDS011;42633;44.494;11.356;2022-07-04T18:10:38;51.78;;;22.45;;
56760;SDS011;42633;44.494;11.356;2022-07-04T18:13:42;44.78;;;18.70;;
56760;SDS011;42633;44.494;11.356;2022-07-04T18:16:46;33.40;;;19.52;;
56760;SDS011;42633;44.494;11.356;2022-07-04T18:19:51;24.30;;;14.30;;
56760;SDS011;42633;44.494;11.356;2022-07-04T18:24:02;28.17;;;16.83;;
56760;SDS011;42633;44.494;11.356;2022-07-04T18:27:08;34.30;;;22.25;;
56760;SDS011;42633;44.494;11.356;2022-07-04T18:30:34;27.10;;;19.05;;
56760;SDS011;42633;44.494;11.356;2022-07-04T18:33:39;24.30;;;13.13;;
56760;SDS011;42633;44.494;11.356;2022-07-04T18:36:44;24.90;;;14.73;;
56760;SDS011;42633;44.494;11.356;2022-07-04T18:39:48;27.80;;;14.52;;
56760;SDS011;42633;44.494;11.356;2022-07-04T18:42:54;26.88;;;14.43;;
56760;SDS011;42633;44.494;11.356;2022-07-04T18:46:18;19.58;;;11.18;;